createdAt,value
2022-12-22T03:34:16.485Z,13.40
2022-12-22T03:36:44.337Z,11.95
2022-12-22T03:39:11.979Z,10.98
2022-12-22T03:41:58.067Z,10.15
2022-12-22T03:44:44.150Z,9.77
2022-12-22T03:47:13.075Z,8.95
2022-12-22T03:49:40.727Z,10.90
2022-12-22T03:52:09.707Z,11.30
2022-12-22T03:54:37.383Z,9.73
2022-12-22T03:57:05.023Z,9.73
2022-12-22T03:59:32.577Z,9.95
2022-12-22T04:02:00.415Z,10.00
2022-12-22T04:04:28.518Z,11.43
2022-12-22T04:06:56.215Z,11.60
2022-12-22T04:09:25.096Z,10.27
2022-12-22T04:12:11.685Z,8.75
2022-12-22T04:14:39.382Z,9.63
2022-12-22T04:17:08.002Z,9.43
2022-12-22T04:19:35.814Z,8.88
2022-12-22T04:22:03.513Z,12.35
2022-12-22T04:24:31.320Z,10.50
2022-12-22T04:26:59.026Z,10.48
2022-12-22T04:29:26.742Z,10.73
2022-12-22T04:31:54.650Z,10.43
2022-12-22T04:34:22.425Z,10.85
2022-12-22T04:36:50.189Z,11.35
2022-12-22T04:39:17.914Z,10.90
2022-12-22T04:41:45.669Z,10.90
2022-12-22T04:44:13.452Z,13.15
2022-12-22T04:46:41.229Z,11.40
2022-12-22T04:49:09.165Z,11.85
2022-12-22T04:51:36.865Z,11.50
2022-12-22T04:54:04.708Z,13.77
2022-12-22T04:56:32.459Z,10.23
2022-12-22T04:59:00.201Z,13.35
2022-12-22T05:01:30.058Z,18.65
2022-12-22T05:03:57.973Z,13.85
2022-12-22T05:06:25.691Z,13.73
2022-12-22T05:08:53.299Z,14.43
2022-12-22T05:11:21.802Z,13.18
2022-12-22T05:13:49.817Z,12.07
2022-12-22T05:16:17.962Z,11.52
2022-12-22T05:18:46.139Z,12.82
2022-12-22T05:21:19.767Z,12.65
2022-12-22T05:23:47.985Z,13.07
2022-12-22T05:26:16.686Z,13.73
2022-12-22T05:28:46.985Z,13.20
2022-12-22T05:31:23.532Z,11.57
2022-12-22T05:33:51.636Z,13.07
2022-12-22T05:36:19.561Z,13.45
2022-12-22T05:38:47.357Z,15.10
2022-12-22T05:41:15.376Z,12.77
2022-12-22T05:43:43.234Z,15.27
2022-12-22T05:46:12.254Z,10.63
2022-12-22T05:48:40.630Z,14.52
2022-12-22T05:51:09.624Z,12.68
2022-12-22T05:53:38.289Z,12.75
2022-12-22T05:56:07.003Z,13.43
2022-12-22T05:58:39.307Z,13.07
2022-12-22T06:03:36.069Z,11.10
2022-12-22T06:06:04.039Z,11.25
2022-12-22T06:08:31.852Z,11.50
2022-12-22T06:10:59.677Z,12.07
2022-12-22T06:13:27.666Z,11.50
2022-12-22T06:15:55.623Z,12.23
2022-12-22T06:18:23.292Z,12.32
2022-12-22T06:20:54.713Z,13.77
2022-12-22T06:23:23.004Z,12.25
2022-12-22T06:26:01.739Z,12.70
2022-12-22T06:28:29.583Z,11.30
2022-12-22T06:30:57.849Z,12.18
2022-12-22T06:33:25.758Z,12.45
2022-12-22T06:35:58.654Z,13.02
2022-12-22T06:38:28.573Z,12.45
2022-12-22T06:40:56.952Z,13.15
2022-12-22T06:43:24.878Z,14.68
2022-12-22T06:45:53.143Z,14.48
2022-12-22T06:48:21.190Z,15.27
2022-12-22T06:50:49.488Z,14.57
2022-12-22T06:53:17.611Z,16.40
2022-12-22T06:55:45.654Z,14.85
2022-12-22T06:58:13.354Z,15.25
2022-12-22T07:00:41.322Z,17.20
2022-12-22T07:03:09.310Z,16.95
2022-12-22T07:05:37.287Z,16.88
2022-12-22T07:08:08.758Z,18.63
2022-12-22T07:13:24.658Z,18.25
2022-12-22T07:16:00.185Z,17.05
2022-12-22T07:18:33.459Z,16.88
2022-12-22T07:21:02.760Z,16.50
2022-12-22T07:23:30.861Z,14.65
2022-12-22T07:25:59.215Z,15.80
2022-12-22T07:28:27.148Z,17.10
2022-12-22T07:30:55.618Z,15.80
2022-12-22T07:33:23.546Z,13.90
2022-12-22T07:36:05.038Z,13.80
2022-12-22T07:38:37.190Z,12.95
2022-12-22T07:43:54.327Z,14.05
2022-12-22T07:46:22.459Z,15.45
2022-12-22T07:49:08.600Z,14.88
2022-12-22T07:51:38.014Z,13.80
2022-12-22T07:54:06.798Z,14.07
2022-12-22T07:56:35.074Z,13.90
2022-12-22T07:59:03.026Z,17.25
2022-12-22T08:01:30.818Z,12.45
2022-12-22T08:03:59.038Z,13.43
2022-12-22T08:06:26.830Z,14.68
2022-12-22T08:08:54.640Z,12.07
2022-12-22T08:11:22.426Z,13.43
2022-12-22T08:13:51.719Z,12.90
2022-12-22T08:16:22.755Z,15.88
2022-12-22T08:18:52.372Z,13.90
2022-12-22T08:21:20.149Z,14.85
2022-12-22T08:23:47.968Z,12.40
2022-12-22T08:26:24.260Z,12.68
2022-12-22T08:29:17.856Z,13.18
2022-12-22T08:31:45.795Z,15.27
2022-12-22T08:34:15.124Z,14.20
2022-12-22T08:36:47.170Z,17.15
2022-12-22T08:39:15.569Z,13.40
2022-12-22T08:41:52.337Z,15.43
2022-12-22T08:44:24.254Z,16.55
2022-12-22T08:46:53.420Z,16.15
2022-12-22T08:49:21.530Z,16.27
2022-12-22T08:51:49.368Z,15.95
2022-12-22T08:54:17.364Z,17.83
2022-12-22T08:56:45.679Z,12.73
2022-12-22T08:59:13.364Z,15.95
2022-12-22T09:01:44.754Z,13.90
2022-12-22T09:04:14.273Z,15.63
2022-12-22T09:06:42.102Z,15.27
2022-12-22T09:09:11.995Z,12.73
2022-12-22T09:11:40.654Z,17.10
2022-12-22T09:14:09.971Z,12.50
2022-12-22T09:16:38.588Z,11.80
2022-12-22T09:19:07.038Z,12.10
2022-12-22T09:21:35.059Z,12.20
2022-12-22T09:24:04.668Z,12.02
2022-12-22T09:26:32.629Z,11.55
2022-12-22T09:29:00.377Z,12.98
2022-12-22T09:31:29.382Z,13.98
2022-12-22T09:33:58.351Z,12.25
2022-12-22T09:36:29.394Z,12.30
2022-12-22T09:38:57.543Z,11.30
2022-12-22T09:41:32.309Z,10.77
2022-12-22T09:44:06.810Z,10.85
2022-12-22T09:46:36.532Z,10.25
2022-12-22T09:49:06.865Z,10.60
2022-12-22T09:51:41.091Z,10.23
2022-12-22T09:54:11.772Z,11.27
2022-12-22T09:56:40.639Z,11.68
2022-12-22T09:59:16.555Z,12.38
2022-12-22T10:02:21.276Z,12.35
2022-12-22T10:05:10.522Z,12.23
2022-12-22T10:07:41.214Z,12.48
2022-12-22T10:10:28.536Z,11.98
2022-12-22T10:12:59.082Z,10.85
2022-12-22T10:15:28.118Z,13.02
2022-12-22T10:18:12.358Z,11.02
2022-12-22T10:20:41.418Z,11.70
2022-12-22T10:23:29.366Z,11.13
2022-12-22T10:28:55.886Z,12.15
2022-12-22T10:31:27.480Z,13.55
2022-12-22T10:33:58.259Z,10.70
2022-12-22T10:36:28.487Z,14.50
2022-12-22T10:39:02.827Z,12.45
2022-12-22T10:41:33.507Z,11.57
2022-12-22T10:44:04.933Z,11.10
2022-12-22T10:46:44.729Z,10.95
2022-12-22T10:49:24.742Z,12.02
2022-12-22T10:52:27.387Z,13.45
2022-12-22T10:55:25.953Z,10.55
2022-12-22T10:58:13.681Z,11.75
2022-12-22T11:00:41.807Z,10.48
2022-12-22T11:03:12.030Z,10.05
2022-12-22T11:05:39.958Z,10.48
2022-12-22T11:08:20.781Z,10.57
2022-12-22T11:11:09.368Z,11.10
2022-12-22T11:14:00.373Z,10.32
2022-12-22T11:16:46.875Z,9.57
2022-12-22T11:19:36.724Z,10.80
2022-12-22T11:22:15.480Z,10.05
2022-12-22T11:25:20.750Z,10.48
2022-12-22T11:28:30.404Z,9.55
2022-12-22T11:31:25.684Z,10.13
2022-12-22T11:34:08.057Z,8.48
2022-12-22T11:36:41.923Z,9.95
2022-12-22T11:39:18.380Z,9.63
2022-12-22T11:42:17.150Z,9.45
2022-12-22T11:44:53.068Z,8.40
2022-12-22T11:47:20.723Z,9.85
2022-12-22T11:50:59.174Z,8.73
2022-12-22T11:53:36.153Z,9.18
2022-12-22T11:56:37.859Z,8.73
2022-12-22T11:59:31.009Z,10.57
2022-12-22T12:02:24.990Z,8.90
2022-12-22T12:04:55.639Z,8.52
2022-12-22T12:07:28.608Z,10.05
2022-12-22T12:10:32.017Z,9.13
2022-12-22T12:13:26.375Z,10.13
2022-12-22T12:16:09.939Z,8.07
2022-12-22T12:18:51.667Z,8.77
2022-12-22T12:21:42.970Z,9.88
2022-12-22T12:24:45.168Z,7.80
2022-12-22T12:27:42.229Z,8.18
2022-12-22T12:33:13.530Z,13.07
2022-12-22T12:35:47.299Z,7.85
2022-12-22T12:39:06.441Z,6.72
2022-12-22T14:43:58.933Z,15.70
2022-12-22T14:46:26.937Z,13.35
2022-12-22T14:48:54.665Z,13.95
2022-12-22T14:51:22.623Z,14.52
2022-12-22T14:53:53.551Z,12.73
2022-12-22T14:56:21.525Z,11.75
2022-12-22T14:58:49.859Z,13.30
2022-12-22T15:01:17.765Z,15.48
2022-12-22T15:04:13.589Z,13.73
2022-12-22T15:06:43.944Z,15.43
2022-12-22T15:09:14.700Z,15.30
2022-12-22T15:11:45.750Z,14.27
2022-12-22T15:14:16.637Z,16.50
2022-12-22T15:16:44.943Z,17.83
2022-12-22T15:19:15.063Z,15.57
2022-12-22T15:21:42.770Z,14.90
2022-12-22T15:24:17.954Z,14.73
2022-12-22T15:26:46.594Z,16.75
2022-12-22T15:29:14.470Z,14.48
2022-12-22T15:31:43.386Z,16.05
2022-12-22T15:34:19.921Z,14.45
2022-12-22T15:36:47.852Z,14.00
2022-12-22T15:39:17.170Z,17.58
2022-12-22T15:41:45.700Z,15.18
2022-12-22T15:44:13.941Z,13.75
2022-12-22T15:46:43.912Z,12.82
2022-12-22T15:49:15.124Z,14.43
2022-12-22T15:51:43.888Z,13.50
2022-12-22T15:54:14.035Z,12.00
2022-12-22T15:56:42.136Z,15.35
2022-12-22T15:59:29.056Z,13.15
2022-12-22T16:02:01.466Z,14.75
2022-12-22T16:04:32.824Z,14.88
2022-12-22T16:07:00.747Z,13.82
2022-12-22T16:09:41.168Z,17.45
2022-12-22T16:12:18.092Z,14.32
2022-12-22T16:14:51.061Z,12.55
2022-12-22T16:17:24.802Z,12.95
2022-12-22T16:19:52.681Z,14.60
2022-12-22T16:22:35.133Z,12.63
2022-12-22T16:25:04.423Z,14.27
2022-12-22T16:27:32.222Z,14.68
2022-12-22T16:29:59.848Z,12.95
2022-12-22T16:32:30.338Z,14.88
2022-12-22T16:35:15.224Z,14.45
2022-12-22T16:37:43.297Z,13.15
2022-12-22T16:40:12.144Z,12.23
2022-12-22T16:45:31.582Z,13.88
2022-12-22T16:48:01.431Z,13.40
2022-12-22T16:50:33.132Z,13.13
2022-12-22T16:53:05.273Z,13.48
2022-12-22T16:58:01.286Z,12.95
2022-12-22T17:00:31.075Z,12.70
2022-12-22T17:03:03.548Z,13.93
2022-12-22T17:05:44.048Z,13.50
2022-12-22T17:08:24.801Z,11.63
2022-12-22T17:10:53.920Z,12.55
2022-12-22T17:13:22.447Z,12.73
2022-12-22T17:15:50.468Z,12.52
2022-12-22T17:18:20.764Z,12.52
2022-12-22T17:20:51.133Z,13.52
2022-12-22T17:23:30.770Z,12.95
2022-12-22T17:26:00.322Z,12.48
2022-12-22T17:28:28.505Z,13.70
2022-12-22T17:30:56.375Z,15.02
2022-12-22T17:33:24.156Z,12.77
2022-12-22T17:35:52.354Z,12.80
2022-12-22T17:38:21.541Z,13.07
2022-12-22T17:40:49.527Z,14.40
2022-12-22T17:43:18.779Z,12.63
2022-12-22T17:45:47.620Z,14.23
2022-12-22T17:48:16.455Z,13.60
2022-12-22T17:50:47.779Z,14.82
2022-12-22T17:53:19.309Z,14.48
2022-12-22T17:58:35.964Z,15.15
2022-12-22T18:01:04.135Z,14.63
2022-12-22T18:03:31.885Z,13.38
2022-12-22T18:05:59.884Z,13.45
2022-12-22T18:08:27.689Z,13.13
2022-12-22T18:10:55.755Z,13.20
2022-12-22T18:13:27.048Z,14.20
2022-12-22T18:15:56.020Z,11.52
2022-12-22T18:18:24.396Z,12.43
2022-12-22T18:21:07.221Z,13.38
2022-12-22T18:23:37.185Z,13.15
2022-12-22T18:26:06.522Z,16.17
2022-12-22T18:28:34.356Z,12.38
2022-12-22T18:31:02.072Z,11.32
2022-12-22T18:33:29.976Z,12.02
2022-12-22T18:35:58.553Z,12.55
2022-12-22T18:38:31.482Z,11.98
2022-12-22T18:40:59.766Z,12.05
2022-12-22T18:43:27.594Z,13.85
2022-12-22T18:45:55.370Z,11.93
2022-12-22T18:48:23.220Z,12.80
2022-12-22T18:50:51.112Z,12.25
2022-12-22T18:53:27.107Z,13.68
2022-12-22T18:55:55.395Z,11.70
2022-12-22T18:58:23.471Z,12.43
2022-12-22T19:00:53.167Z,13.55
2022-12-22T19:03:23.970Z,13.95
2022-12-22T19:05:51.803Z,13.77
2022-12-22T19:08:22.139Z,12.55
2022-12-22T19:10:58.413Z,13.48
2022-12-22T19:13:35.772Z,13.43
2022-12-22T19:16:03.789Z,14.30
2022-12-22T19:18:31.602Z,15.15
2022-12-22T19:20:59.520Z,13.55
2022-12-22T19:23:27.276Z,12.32
2022-12-22T19:26:02.185Z,12.93
2022-12-22T19:28:41.893Z,12.82
2022-12-22T19:31:19.597Z,12.65
2022-12-22T19:33:47.766Z,12.13
2022-12-22T19:36:25.922Z,12.05
2022-12-22T19:39:04.090Z,13.05
2022-12-22T19:41:48.697Z,13.32
2022-12-22T19:44:16.513Z,14.25
2022-12-22T19:46:44.562Z,12.80
2022-12-22T19:49:17.369Z,12.60
2022-12-22T19:51:45.548Z,13.75
2022-12-22T19:54:13.295Z,12.90
2022-12-22T19:56:42.532Z,13.82
2022-12-22T19:59:26.030Z,12.45
2022-12-22T20:01:56.421Z,12.63
2022-12-22T20:04:24.252Z,13.85
2022-12-22T20:06:52.162Z,11.25
2022-12-22T20:09:20.291Z,13.55
2022-12-22T20:11:48.185Z,12.07
2022-12-22T20:14:18.067Z,13.02
2022-12-22T20:16:46.318Z,11.63
2022-12-22T20:19:15.322Z,13.43
2022-12-22T20:21:43.338Z,12.10
2022-12-22T20:24:20.286Z,12.13
2022-12-22T20:26:53.850Z,14.65
2022-12-22T20:29:23.230Z,11.95
2022-12-22T20:31:51.767Z,12.48
2022-12-22T20:34:19.650Z,12.93
2022-12-22T20:36:47.484Z,11.70
2022-12-22T20:39:16.499Z,12.35
2022-12-22T20:41:50.519Z,13.52
2022-12-22T20:44:20.808Z,11.60
2022-12-22T20:46:48.519Z,12.05
2022-12-22T20:49:16.487Z,10.95
2022-12-22T20:51:44.142Z,11.57
2022-12-22T20:54:14.869Z,11.43
2022-12-22T20:56:44.591Z,12.27
2022-12-22T20:59:22.009Z,11.57
2022-12-22T21:01:52.056Z,12.68
2022-12-22T21:04:20.273Z,11.15
2022-12-22T21:06:55.821Z,11.15
2022-12-22T21:09:24.230Z,11.77
2022-12-22T21:11:52.419Z,11.65
2022-12-22T21:14:20.678Z,11.93
2022-12-22T21:16:49.633Z,11.15
2022-12-22T21:19:18.928Z,10.85
2022-12-22T21:21:47.092Z,12.00
2022-12-22T21:24:14.992Z,11.98
2022-12-22T21:26:46.997Z,11.25
2022-12-22T21:29:20.853Z,14.50
